Time;durP1;ratioP1;P1;durP2;ratioP2;P2;SDS_P1;SDS_P2;PMS_P1;PMS_P2;Temp;Humidity;BMP_temperature;BMP_pressure;BME280_temperature;BME280_humidity;BME280_pressure;Samples;Min_cycle;Max_cycle;Signal;HPM_P1;HPM_P2
2022/03/22 00:00:37;;;;;;;41.03;28.52;;;6.50;99.90;;;;;;5095403;28;20509;-67
2022/03/22 00:03:04;;;;;;;36.75;28.10;;;6.50;99.90;;;;;;5101264;27;20039;-67
2022/03/22 00:05:31;;;;;;;40.50;28.42;;;6.40;99.90;;;;;;5102108;28;20043;-67
2022/03/22 00:07:59;;;;;;;40.72;29.75;;;6.40;99.90;;;;;;5129976;27;20044;-67
2022/03/22 00:10:25;;;;;;;38.28;28.42;;;6.40;99.90;;;;;;5095830;28;20122;-67
2022/03/22 00:12:51;;;;;;;46.35;29.83;;;6.30;99.90;;;;;;5100805;28;20039;-67
2022/03/22 00:15:17;;;;;;;37.90;30.35;;;6.30;99.90;;;;;;5099230;28;20048;-67
2022/03/22 00:17:43;;;;;;;40.00;29.55;;;6.20;99.90;;;;;;5102025;28;20032;-67
2022/03/22 00:20:10;;;;;;;44.33;30.67;;;6.20;99.90;;;;;;5100121;28;20412;-67
2022/03/22 00:22:37;;;;;;;44.50;30.55;;;6.20;99.90;;;;;;5099155;28;20044;-67
2022/03/22 00:25:04;;;;;;;43.83;28.75;;;6.20;99.90;;;;;;5126497;27;20092;-67
2022/03/22 00:27:50;;;;;;;39.78;29.63;;;6.20;99.90;;;;;;5100408;28;20435;-67
2022/03/22 00:30:19;;;;;;;37.75;29.40;;;6.20;99.90;;;;;;5099746;28;20044;-67
2022/03/22 00:32:45;;;;;;;37.13;29.75;;;6.20;99.90;;;;;;5098121;28;20515;-67
2022/03/22 00:35:11;;;;;;;43.33;29.65;;;6.30;99.90;;;;;;5096944;28;20077;-67
2022/03/22 00:37:43;;;;;;;37.67;29.63;;;6.30;99.90;;;;;;5097478;28;20110;-67
2022/03/22 00:40:18;;;;;;;42.95;30.17;;;6.30;99.90;;;;;;5096129;28;20497;-67
2022/03/22 00:42:46;;;;;;;40.85;29.58;;;6.30;99.90;;;;;;5099389;28;20043;-67
2022/03/22 00:45:16;;;;;;;39.65;29.52;;;6.30;99.90;;;;;;5098850;28;20090;-67
2022/03/22 00:47:46;;;;;;;39.35;28.98;;;6.30;99.90;;;;;;5101171;28;20055;-67
2022/03/22 00:50:22;;;;;;;36.95;28.52;;;6.40;99.90;;;;;;5096026;28;20079;-67
2022/03/22 00:52:48;;;;;;;42.97;28.52;;;6.30;99.90;;;;;;5129164;27;20031;-67
2022/03/22 00:55:14;;;;;;;40.58;30.02;;;6.40;99.90;;;;;;5097316;28;20039;-67
2022/03/22 00:57:41;;;;;;;34.47;26.77;;;6.40;99.90;;;;;;5129247;27;20077;-67
2022/03/22 01:00:10;;;;;;;46.65;30.17;;;6.40;99.90;;;;;;5100682;28;20671;-67
2022/03/22 01:02:39;;;;;;;41.55;29.45;;;6.40;99.90;;;;;;5082610;28;20055;-67
2022/03/22 01:05:07;;;;;;;34.45;27.52;;;6.40;99.90;;;;;;5097728;27;20040;-67
2022/03/22 01:07:36;;;;;;;40.08;28.52;;;6.40;99.90;;;;;;5098531;28;20118;-67
2022/03/22 01:10:05;;;;;;;35.42;27.20;;;6.40;99.90;;;;;;5100080;28;20050;-67
2022/03/22 01:12:35;;;;;;;40.83;29.80;;;6.40;99.90;;;;;;5099714;28;20050;-67
2022/03/22 01:15:09;;;;;;;38.03;27.60;;;6.40;99.90;;;;;;5128676;27;20110;-67
2022/03/22 01:17:35;;;;;;;39.13;28.40;;;6.40;99.90;;;;;;5100056;28;20046;-67
2022/03/22 01:20:02;;;;;;;37.85;27.90;;;6.40;99.90;;;;;;5102172;27;20519;-67
2022/03/22 01:22:27;;;;;;;34.60;26.65;;;6.40;99.90;;;;;;5102007;28;20039;-67
2022/03/22 01:24:53;;;;;;;29.73;21.30;;;6.40;99.90;;;;;;5100214;28;20187;-67
2022/03/22 01:27:22;;;;;;;30.58;24.27;;;6.40;99.90;;;;;;5132099;27;20047;-67
2022/03/22 01:29:49;;;;;;;38.17;25.17;;;6.40;99.90;;;;;;5128845;27;20130;-67
2022/03/22 01:32:15;;;;;;;28.63;22.73;;;6.40;99.90;;;;;;5097382;28;20657;-67
2022/03/22 01:34:42;;;;;;;25.45;20.23;;;6.40;99.90;;;;;;5094559;28;20123;-66
2022/03/22 01:37:08;;;;;;;28.73;21.90;;;6.40;99.90;;;;;;5096265;28;20071;-67
2022/03/22 01:39:34;;;;;;;26.65;22.15;;;6.40;99.90;;;;;;5098109;28;20040;-67
2022/03/22 01:42:00;;;;;;;25.88;21.40;;;6.40;99.90;;;;;;5096219;28;20088;-67
2022/03/22 01:44:26;;;;;;;37.38;27.13;;;6.40;99.90;;;;;;5093069;28;20074;-67
2022/03/22 01:46:58;;;;;;;29.27;18.90;;;6.40;99.90;;;;;;5094352;28;20051;-67
2022/03/22 01:49:24;;;;;;;28.00;22.58;;;6.40;99.90;;;;;;5078329;28;20086;-67
2022/03/22 01:51:52;;;;;;;24.88;20.77;;;6.40;99.90;;;;;;5095046;28;20091;-67
2022/03/22 01:54:18;;;;;;;26.00;18.63;;;6.40;99.90;;;;;;5097929;28;20032;-67
2022/03/22 01:56:44;;;;;;;36.40;26.85;;;6.40;99.90;;;;;;5097200;28;20048;-67
2022/03/22 01:59:10;;;;;;;33.42;26.80;;;6.30;99.90;;;;;;5091022;28;20384;-67
2022/03/22 02:07:08;;;;;;;30.58;21.73;;;6.30;99.90;;;;;;5090702;28;20092;-67
2022/03/22 02:09:34;;;;;;;25.58;19.75;;;6.30;99.90;;;;;;5089835;28;20096;-67
2022/03/22 02:11:59;;;;;;;24.75;19.58;;;7.10;99.90;;;;;;5095065;28;20047;-67
2022/03/22 02:14:25;;;;;;;24.95;19.83;;;6.20;99.90;;;;;;5090467;28;20040;-67
2022/03/22 02:16:51;;;;;;;24.75;19.25;;;6.20;99.90;;;;;;5075406;28;20050;-67
2022/03/22 02:19:17;;;;;;;33.47;24.20;;;6.20;99.90;;;;;;5090889;28;20866;-67
2022/03/22 02:21:44;;;;;;;35.63;25.50;;;6.20;99.90;;;;;;5090792;28;20134;-67
2022/03/22 02:24:10;;;;;;;33.30;26.02;;;6.20;99.90;;;;;;5089568;28;20035;-67
2022/03/22 02:26:38;;;;;;;44.50;30.50;;;6.20;99.90;;;;;;5103857;27;20094;-67
2022/03/22 02:29:05;;;;;;;42.95;30.85;;;6.20;99.90;;;;;;5089201;28;20097;-67
2022/03/22 02:31:31;;;;;;;41.55;29.38;;;6.20;99.90;;;;;;5123267;27;20048;-67
2022/03/22 02:33:57;;;;;;;38.17;28.98;;;6.20;99.90;;;;;;5091814;28;20531;-67
2022/03/22 02:36:23;;;;;;;42.03;33.53;;;6.20;99.90;;;;;;5121608;27;20035;-67
2022/03/22 02:38:50;;;;;;;42.28;31.15;;;6.10;99.90;;;;;;5090271;28;20047;-67
2022/03/22 02:41:24;;;;;;;44.00;31.15;;;6.20;99.90;;;;;;5090829;28;20188;-67
2022/03/22 02:43:51;;;;;;;42.10;31.48;;;6.10;99.90;;;;;;5093846;27;20051;-67
2022/03/22 02:46:17;;;;;;;35.22;28.13;;;6.10;99.90;;;;;;5095547;27;20120;-67
2022/03/22 02:48:44;;;;;;;39.03;28.90;;;6.00;99.90;;;;;;5094157;28;20478;-67
2022/03/22 02:51:10;;;;;;;40.67;29.75;;;6.00;99.90;;;;;;5092476;28;20478;-67
2022/03/22 02:53:36;;;;;;;35.85;27.95;;;6.00;99.90;;;;;;5094046;28;20044;-67
2022/03/22 02:56:02;;;;;;;35.67;27.00;;;5.90;99.90;;;;;;5096571;27;20044;-67
2022/03/22 02:58:28;;;;;;;43.38;31.90;;;5.90;99.90;;;;;;5094880;27;20059;-67
2022/03/22 03:00:54;;;;;;;37.15;27.33;;;5.90;99.90;;;;;;5125658;27;20036;-67
2022/03/22 03:03:22;;;;;;;41.83;29.95;;;5.80;99.90;;;;;;5096909;27;20067;-67
2022/03/22 03:05:51;;;;;;;38.13;27.63;;;5.80;99.90;;;;;;5098459;27;20121;-67
2022/03/22 03:08:18;;;;;;;38.72;29.83;;;5.80;99.90;;;;;;5099304;28;20043;-67
2022/03/22 03:10:45;;;;;;;35.45;28.27;;;5.80;99.90;;;;;;5095992;28;20047;-67
2022/03/22 03:13:11;;;;;;;35.35;26.98;;;5.80;99.90;;;;;;5101436;27;20066;-67
2022/03/22 03:15:37;;;;;;;36.67;26.45;;;5.80;99.90;;;;;;5103717;27;20032;-67
2022/03/22 03:18:03;;;;;;;31.85;24.27;;;5.80;99.90;;;;;;5098931;28;20034;-67
2022/03/22 03:20:28;;;;;;;32.78;24.27;;;5.80;99.90;;;;;;5096080;28;20035;-67
2022/03/22 03:22:54;;;;;;;33.63;25.52;;;5.70;99.90;;;;;;5099441;28;20040;-67
2022/03/22 03:25:20;;;;;;;34.58;26.55;;;5.80;99.90;;;;;;5099573;27;20504;-67
2022/03/22 03:27:45;;;;;;;29.23;23.38;;;5.70;99.90;;;;;;5099706;28;20409;-67
2022/03/22 03:30:11;;;;;;;29.45;20.38;;;5.70;99.90;;;;;;5095183;28;20630;-67
2022/03/22 03:32:36;;;;;;;30.75;23.42;;;5.70;99.90;;;;;;5103554;28;20120;-66
2022/03/22 03:35:03;;;;;;;31.50;22.70;;;5.70;99.90;;;;;;5101313;28;20085;-66
2022/03/22 03:37:32;;;;;;;25.02;20.65;;;5.70;99.90;;;;;;5104077;27;20127;-67
2022/03/22 03:39:58;;;;;;;28.55;21.83;;;5.70;99.90;;;;;;5099652;28;20044;-66
2022/03/22 03:42:23;;;;;;;30.55;22.00;;;5.70;99.90;;;;;;5101969;28;20038;-67
2022/03/22 03:47:34;;;;;;;27.30;20.10;;;5.60;99.90;;;;;;5130851;27;20093;-67
2022/03/22 03:50:05;;;;;;;33.05;24.05;;;5.60;99.90;;;;;;5102310;27;20070;-67
2022/03/22 03:52:33;;;;;;;25.73;18.80;;;5.60;99.90;;;;;;5101223;28;20104;-66
2022/03/22 03:55:00;;;;;;;26.73;17.27;;;5.60;99.90;;;;;;5102531;28;20082;-67
2022/03/22 03:57:26;;;;;;;28.92;22.65;;;5.50;99.90;;;;;;5127805;27;20047;-67
2022/03/22 03:59:54;;;;;;;24.90;18.85;;;5.50;99.90;;;;;;5104216;28;20126;-67
2022/03/22 04:02:21;;;;;;;39.80;27.50;;;5.50;99.90;;;;;;5132442;27;20546;-67
2022/03/22 04:04:51;;;;;;;26.67;21.23;;;5.50;99.90;;;;;;5098273;28;20043;-67
2022/03/22 04:07:18;;;;;;;26.45;21.58;;;5.50;99.90;;;;;;5103416;28;20040;-67
2022/03/22 04:09:44;;;;;;;26.48;20.35;;;5.50;99.90;;;;;;5099621;28;20052;-67
2022/03/22 04:12:11;;;;;;;30.25;22.90;;;5.40;99.90;;;;;;5100430;28;20093;-67
2022/03/22 04:14:37;;;;;;;33.28;23.15;;;5.40;99.90;;;;;;5104426;27;20040;-67
2022/03/22 04:17:03;;;;;;;34.58;27.75;;;5.40;99.90;;;;;;5098901;28;20482;-67
2022/03/22 04:19:29;;;;;;;34.75;25.65;;;5.40;99.90;;;;;;5105168;27;20451;-67
2022/03/22 04:21:55;;;;;;;35.03;26.55;;;5.40;99.90;;;;;;5100183;27;20135;-67
2022/03/22 04:24:21;;;;;;;30.25;25.35;;;5.40;99.90;;;;;;5100855;28;20035;-67
2022/03/22 04:26:47;;;;;;;35.00;27.67;;;5.40;99.90;;;;;;5104150;27;20057;-67
2022/03/22 04:34:45;;;;;;;27.55;21.33;;;5.60;99.90;;;;;;5128717;27;20465;-67
2022/03/22 04:37:12;;;;;;;26.60;20.80;;;5.60;99.90;;;;;;5101431;28;20112;-67
2022/03/22 04:39:45;;;;;;;26.08;22.40;;;5.60;99.90;;;;;;5099915;28;20058;-67
2022/03/22 04:42:13;;;;;;;30.17;23.05;;;5.60;99.90;;;;;;5100364;28;20507;-67
2022/03/22 04:44:39;;;;;;;38.70;25.48;;;5.50;99.90;;;;;;5102050;28;20039;-67
2022/03/22 04:47:05;;;;;;;31.52;24.08;;;5.50;99.90;;;;;;5100672;28;20048;-67
2022/03/22 04:49:33;;;;;;;32.72;26.08;;;5.50;99.90;;;;;;5099061;28;20031;-67
2022/03/22 04:57:28;;;;;;;40.03;31.10;;;5.40;99.90;;;;;;5133326;27;20058;-67
2022/03/22 04:59:54;;;;;;;35.15;28.00;;;5.30;99.90;;;;;;5099765;28;20032;-67
2022/03/22 05:02:20;;;;;;;30.52;25.23;;;5.40;99.90;;;;;;5101074;28;20050;-67
2022/03/22 05:04:46;;;;;;;31.25;25.27;;;5.40;99.90;;;;;;5098529;28;20035;-67
2022/03/22 05:07:12;;;;;;;35.15;27.35;;;5.40;99.90;;;;;;5100562;28;20042;-66
2022/03/22 05:09:37;;;;;;;32.92;26.02;;;5.40;99.90;;;;;;5105822;27;20028;-66
2022/03/22 05:12:04;;;;;;;36.08;28.05;;;5.40;99.90;;;;;;5099922;28;20092;-67
2022/03/22 05:14:29;;;;;;;35.05;27.38;;;5.40;99.90;;;;;;5127789;27;20162;-67
2022/03/22 05:16:58;;;;;;;41.85;29.55;;;5.40;99.90;;;;;;5130595;27;20138;-67
2022/03/22 05:19:27;;;;;;;32.15;26.27;;;5.40;99.90;;;;;;5096673;28;20040;-67
2022/03/22 05:21:53;;;;;;;47.05;31.23;;;5.40;99.90;;;;;;5125815;27;20040;-67
2022/03/22 05:24:19;;;;;;;34.47;27.33;;;5.40;99.90;;;;;;5123006;27;20469;-67
2022/03/22 05:26:50;;;;;;;34.40;24.52;;;5.40;99.90;;;;;;5091210;28;20040;-67
2022/03/22 05:29:17;;;;;;;38.50;27.48;;;5.40;99.90;;;;;;5093161;27;20047;-67
2022/03/22 05:31:43;;;;;;;39.20;26.95;;;5.50;99.90;;;;;;5092541;28;20048;-67
2022/03/22 05:34:08;;;;;;;38.97;27.00;;;5.50;99.90;;;;;;5097008;28;20048;-67
2022/03/22 05:36:34;;;;;;;44.97;30.90;;;5.50;99.90;;;;;;5094956;28;20048;-67
2022/03/22 05:38:59;;;;;;;37.90;29.17;;;5.40;99.90;;;;;;5097576;28;20097;-67
2022/03/22 05:41:25;;;;;;;38.30;28.67;;;5.50;99.90;;;;;;5097112;28;20059;-67
2022/03/22 05:43:51;;;;;;;36.47;26.85;;;5.50;99.90;;;;;;5127415;27;20043;-67
2022/03/22 05:46:17;;;;;;;39.88;30.10;;;5.50;99.90;;;;;;5098461;28;20142;-67
2022/03/22 05:48:44;;;;;;;36.95;29.38;;;5.60;99.90;;;;;;5131013;27;20043;-66
2022/03/22 05:51:10;;;;;;;40.78;31.10;;;5.60;99.90;;;;;;5100361;28;20040;-67
2022/03/22 05:53:36;;;;;;;39.53;28.48;;;5.60;99.90;;;;;;5098791;28;20074;-67
2022/03/22 05:56:02;;;;;;;33.60;26.35;;;5.70;99.90;;;;;;5091296;28;20127;-66
2022/03/22 05:58:28;;;;;;;37.40;28.08;;;5.80;99.90;;;;;;5096661;28;20042;-67
2022/03/22 06:00:54;;;;;;;35.42;28.08;;;5.80;99.90;;;;;;5095527;28;20428;-67
2022/03/22 06:03:20;;;;;;;35.70;27.67;;;5.90;99.90;;;;;;5093148;28;20482;-67
2022/03/22 06:05:46;;;;;;;40.25;29.45;;;5.90;99.90;;;;;;5099318;28;20494;-67
2022/03/22 06:08:11;;;;;;;39.22;27.80;;;6.00;99.90;;;;;;5093177;28;20046;-67
2022/03/22 06:10:37;;;;;;;33.35;27.17;;;6.00;99.90;;;;;;5092820;28;20040;-67
2022/03/22 06:13:04;;;;;;;35.13;28.42;;;6.10;99.90;;;;;;5097403;28;20045;-67
2022/03/22 06:15:31;;;;;;;36.90;28.08;;;6.20;99.90;;;;;;5095039;28;20035;-67
2022/03/22 06:18:00;;;;;;;33.55;24.70;;;6.20;99.90;;;;;;5133948;27;20038;-67
2022/03/22 06:20:35;;;;;;;29.42;23.40;;;6.40;99.90;;;;;;5095501;28;20123;-67
2022/03/22 06:23:05;;;;;;;30.30;22.85;;;6.50;99.90;;;;;;5098218;28;20077;-66
2022/03/22 06:25:32;;;;;;;31.98;24.08;;;6.70;99.90;;;;;;5097356;28;20043;-66
2022/03/22 06:27:58;;;;;;;30.42;23.73;;;7.00;99.90;;;;;;5101160;28;20118;-67
2022/03/22 06:30:25;;;;;;;34.70;25.73;;;7.30;99.90;;;;;;5101988;28;20067;-67
2022/03/22 06:32:57;;;;;;;29.77;24.05;;;7.70;99.90;;;;;;5100341;28;20127;-67
2022/03/22 06:35:25;;;;;;;33.95;26.83;;;8.10;99.90;;;;;;5101920;28;20093;-67
2022/03/22 06:37:52;;;;;;;29.35;24.17;;;8.60;99.90;;;;;;5132315;27;20027;-67
2022/03/22 06:40:19;;;;;;;33.72;24.95;;;9.00;99.90;;;;;;5100056;28;20169;-67
2022/03/22 06:42:46;;;;;;;41.33;26.35;;;9.50;99.90;;;;;;5097849;28;20039;-67
2022/03/22 06:45:12;;;;;;;31.67;25.17;;;9.90;99.90;;;;;;5096898;28;20039;-67
2022/03/22 06:47:42;;;;;;;38.03;26.98;;;10.40;99.90;;;;;;5100370;28;20503;-67
2022/03/22 06:50:13;;;;;;;36.80;26.30;;;10.80;99.90;;;;;;5100806;28;20032;-67
2022/03/22 06:52:39;;;;;;;30.10;26.58;;;11.20;99.90;;;;;;5103693;28;20044;-67
2022/03/22 06:55:07;;;;;;;33.05;25.10;;;11.50;99.90;;;;;;5098031;28;20095;-67
2022/03/22 06:57:33;;;;;;;29.67;26.48;;;11.90;99.90;;;;;;5131502;27;20046;-68
2022/03/22 07:00:00;;;;;;;38.15;27.05;;;12.30;99.90;;;;;;5095004;27;20035;-68
2022/03/22 07:02:26;;;;;;;31.65;26.20;;;12.70;99.90;;;;;;5097657;28;20096;-68
2022/03/22 07:04:52;;;;;;;38.35;26.65;;;13.00;99.90;;;;;;5127798;27;20135;-68
2022/03/22 07:07:18;;;;;;;33.22;27.17;;;13.20;99.70;;;;;;5106627;28;20181;-68
2022/03/22 07:09:44;;;;;;;29.60;25.02;;;13.50;99.00;;;;;;5101580;28;20047;-68
2022/03/22 07:12:10;;;;;;;32.08;25.30;;;13.60;97.80;;;;;;5131593;27;20043;-68
2022/03/22 07:14:40;;;;;;;31.65;25.85;;;13.80;96.90;;;;;;5099720;28;20036;-68
2022/03/22 07:17:08;;;;;;;30.10;25.92;;;13.90;96.50;;;;;;5104815;28;20039;-68
2022/03/22 07:19:34;;;;;;;35.63;26.85;;;14.00;95.50;;;;;;5101799;28;20047;-68
2022/03/22 07:22:01;;;;;;;29.60;24.80;;;13.90;94.60;;;;;;5100731;27;20063;-68
2022/03/22 07:24:27;;;;;;;33.25;27.45;;;13.90;94.00;;;;;;5101249;28;20079;-68
2022/03/22 07:26:53;;;;;;;37.88;24.45;;;14.00;94.20;;;;;;5088149;28;20051;-68
2022/03/22 07:29:19;;;;;;;30.85;25.55;;;14.10;93.70;;;;;;5086254;28;20047;-68
2022/03/22 07:31:45;;;;;;;32.22;24.75;;;14.10;92.30;;;;;;5129502;27;20249;-68
2022/03/22 07:34:16;;;;;;;33.70;25.33;;;14.00;92.00;;;;;;5098529;28;20122;-68
2022/03/22 07:36:43;;;;;;;33.90;25.70;;;13.90;92.40;;;;;;5080437;28;20036;-68
2022/03/22 07:39:10;;;;;;;31.10;24.52;;;14.00;93.20;;;;;;5098056;27;20032;-68
2022/03/22 07:41:38;;;;;;;28.50;25.38;;;14.20;93.30;;;;;;5097946;28;20410;-68
2022/03/22 07:44:05;;;;;;;29.92;26.48;;;14.30;92.90;;;;;;5097947;28;20478;-68
2022/03/22 07:46:30;;;;;;;30.92;27.40;;;14.20;92.40;;;;;;5131412;27;20389;-68
2022/03/22 07:54:26;;;;;;;32.05;25.27;;;13.80;92.30;;;;;;5080646;28;20050;-67
2022/03/22 07:56:51;;;;;;;34.13;24.77;;;13.60;92.90;;;;;;5090254;27;20809;-68
2022/03/22 07:59:17;;;;;;;32.42;26.52;;;13.60;93.50;;;;;;5084427;28;20028;-68
2022/03/22 08:01:43;;;;;;;28.90;25.52;;;13.50;93.50;;;;;;5086716;28;20489;-67
2022/03/22 08:04:09;;;;;;;30.80;25.33;;;13.40;93.50;;;;;;5085505;28;20044;-69
2022/03/22 08:06:34;;;;;;;37.90;26.85;;;13.30;93.80;;;;;;5083301;28;20078;-68
2022/03/22 08:09:00;;;;;;;32.88;25.92;;;13.30;94.50;;;;;;5082253;28;20122;-68
2022/03/22 08:11:26;;;;;;;37.63;24.33;;;13.30;95.20;;;;;;5082228;28;20062;-68
2022/03/22 08:13:51;;;;;;;27.70;23.95;;;13.40;94.70;;;;;;5092315;28;20061;-68
2022/03/22 08:16:17;;;;;;;35.83;23.45;;;13.50;93.00;;;;;;5123337;27;20100;-68
2022/03/22 08:18:43;;;;;;;27.10;24.10;;;13.60;90.70;;;;;;5093336;28;21493;-68
2022/03/22 08:21:08;;;;;;;36.63;24.38;;;13.70;87.70;;;;;;5082638;27;20061;-69
2022/03/22 08:23:34;;;;;;;33.40;22.42;;;13.60;90.00;;;;;;5083916;27;20047;-68
2022/03/22 08:26:00;;;;;;;28.45;23.98;;;13.80;86.60;;;;;;5084418;28;20638;-68
2022/03/22 08:28:26;;;;;;;31.70;22.75;;;13.80;86.30;;;;;;5083322;27;20485;-68
2022/03/22 08:30:52;;;;;;;26.70;22.80;;;13.80;86.30;;;;;;5083644;28;21791;-68
2022/03/22 08:33:18;;;;;;;32.75;22.73;;;13.80;85.60;;;;;;5084403;28;20044;-68
2022/03/22 08:35:50;;;;;;;33.35;22.48;;;13.90;84.50;;;;;;5082434;28;20481;-68
2022/03/22 08:38:20;;;;;;;28.25;22.20;;;14.00;81.50;;;;;;5081411;28;20043;-68
2022/03/22 08:40:47;;;;;;;28.58;21.55;;;14.00;82.80;;;;;;5084632;28;20035;-68
2022/03/22 08:43:13;;;;;;;28.48;21.38;;;14.20;83.20;;;;;;5081604;28;20044;-68
2022/03/22 08:45:39;;;;;;;32.58;21.52;;;14.20;80.90;;;;;;5081788;28;20621;-67
2022/03/22 08:48:10;;;;;;;31.05;20.98;;;14.20;79.90;;;;;;5083033;28;20047;-66
2022/03/22 08:50:41;;;;;;;27.50;21.80;;;14.30;76.80;;;;;;5084339;28;20032;-66
2022/03/22 08:53:08;;;;;;;29.90;21.75;;;14.40;80.50;;;;;;5083964;28;20039;-66
2022/03/22 08:55:35;;;;;;;25.83;21.17;;;14.60;80.00;;;;;;5081691;28;20101;-66
2022/03/22 08:58:06;;;;;;;29.35;22.48;;;14.60;78.70;;;;;;5085210;28;20039;-67
2022/03/22 09:00:33;;;;;;;27.52;20.95;;;14.70;78.10;;;;;;5111011;27;20424;-67
2022/03/22 09:03:01;;;;;;;24.02;21.40;;;14.80;77.80;;;;;;5084801;28;22405;-66
2022/03/22 09:08:11;;;;;;;27.63;20.48;;;14.90;77.10;;;;;;5091995;27;20421;-67
2022/03/22 09:10:37;;;;;;;27.17;22.08;;;15.10;75.60;;;;;;5081847;28;20043;-66
2022/03/22 09:13:04;;;;;;;27.63;21.42;;;15.20;74.40;;;;;;5081023;28;20049;-67
2022/03/22 09:15:31;;;;;;;26.65;21.27;;;15.40;75.20;;;;;;5086210;28;20044;-67
2022/03/22 09:17:58;;;;;;;29.40;21.45;;;15.60;74.20;;;;;;5092685;28;20047;-67
2022/03/22 09:20:25;;;;;;;26.73;20.80;;;15.80;73.60;;;;;;5086422;28;20028;-67
2022/03/22 09:22:51;;;;;;;27.02;20.35;;;15.90;71.50;;;;;;5082442;28;20055;-66
2022/03/22 09:25:21;;;;;;;26.85;19.42;;;16.00;71.40;;;;;;5083164;28;20047;-67
2022/03/22 09:27:47;;;;;;;27.25;20.27;;;16.20;70.80;;;;;;5085277;28;20047;-67
2022/03/22 09:30:13;;;;;;;25.65;20.98;;;16.30;70.30;;;;;;5089002;28;20706;-67
2022/03/22 09:32:42;;;;;;;26.65;21.08;;;16.40;70.30;;;;;;5098212;28;20051;-67
2022/03/22 09:35:10;;;;;;;27.95;21.33;;;16.40;71.20;;;;;;5085763;28;20079;-67
2022/03/22 09:37:37;;;;;;;26.40;20.00;;;16.50;70.60;;;;;;5097229;28;20046;-66
2022/03/22 09:40:04;;;;;;;28.15;20.80;;;16.70;70.90;;;;;;5094523;28;20379;-67
2022/03/22 09:42:30;;;;;;;29.17;21.52;;;16.90;71.50;;;;;;5092630;28;20516;-67
2022/03/22 09:44:58;;;;;;;27.08;19.98;;;17.00;69.30;;;;;;5093805;28;20051;-67
2022/03/22 09:47:24;;;;;;;24.33;20.33;;;17.20;69.90;;;;;;5096650;28;20047;-67
2022/03/22 09:49:51;;;;;;;28.73;19.48;;;17.30;68.80;;;;;;5080881;28;20043;-67
2022/03/22 09:52:17;;;;;;;24.88;20.15;;;17.40;68.00;;;;;;5086225;28;20039;-67
2022/03/22 09:54:43;;;;;;;29.58;20.20;;;17.50;67.00;;;;;;5088866;27;20089;-67
2022/03/22 09:57:09;;;;;;;24.08;19.75;;;17.60;66.80;;;;;;5085381;28;20043;-67
2022/03/22 09:59:36;;;;;;;30.48;19.65;;;17.80;64.40;;;;;;5084458;28;20089;-67
2022/03/22 10:02:05;;;;;;;26.73;20.45;;;17.80;65.00;;;;;;5085155;27;20044;-67
2022/03/22 10:04:43;;;;;;;21.95;17.98;;;17.90;65.10;;;;;;5115626;27;20039;-67
2022/03/22 10:07:17;;;;;;;28.60;19.05;;;18.10;65.40;;;;;;5088712;28;20076;-67
2022/03/22 10:09:51;;;;;;;29.70;19.00;;;18.30;62.60;;;;;;5090028;27;20084;-67
2022/03/22 10:12:26;;;;;;;21.48;18.13;;;18.40;64.00;;;;;;5090088;27;20360;-67
2022/03/22 10:14:52;;;;;;;21.13;17.60;;;18.50;62.60;;;;;;5086835;28;20040;-67
2022/03/22 10:17:19;;;;;;;26.40;18.45;;;18.60;60.70;;;;;;5087916;28;20393;-67
2022/03/22 10:19:51;;;;;;;28.95;19.13;;;18.80;61.80;;;;;;5086557;28;20483;-67
2022/03/22 10:22:26;;;;;;;27.77;19.73;;;18.80;62.50;;;;;;5087165;27;20052;-67
2022/03/22 10:24:58;;;;;;;22.30;18.70;;;18.90;63.20;;;;;;5085787;28;20056;-67
2022/03/22 10:27:25;;;;;;;28.58;18.88;;;19.00;62.10;;;;;;5086920;28;20130;-67
2022/03/22 10:29:52;;;;;;;27.42;19.52;;;19.10;59.80;;;;;;5084916;28;20162;-67
2022/03/22 10:32:19;;;;;;;24.33;19.80;;;19.30;60.30;;;;;;5086990;28;20040;-67
2022/03/22 10:34:45;;;;;;;25.90;19.88;;;19.30;58.70;;;;;;5087312;27;20103;-67
2022/03/22 10:37:11;;;;;;;28.30;21.88;;;19.50;58.90;;;;;;5086125;28;20477;-67
2022/03/22 10:39:41;;;;;;;26.10;17.75;;;19.50;60.20;;;;;;5084104;28;20573;-67
2022/03/22 10:42:08;;;;;;;22.15;17.35;;;19.60;55.70;;;;;;5117428;27;20040;-67
2022/03/22 10:44:39;;;;;;;24.23;19.67;;;19.70;55.90;;;;;;5086206;28;20473;-67
2022/03/22 10:47:08;;;;;;;25.92;19.65;;;19.50;58.40;;;;;;5086648;28;20047;-67
2022/03/22 10:49:33;;;;;;;23.55;19.23;;;19.50;57.20;;;;;;5090198;28;20177;-67
2022/03/22 10:51:59;;;;;;;26.35;20.15;;;19.70;57.00;;;;;;5087092;28;20481;-67
2022/03/22 10:54:25;;;;;;;27.35;20.65;;;19.50;57.80;;;;;;5084736;28;20051;-66
2022/03/22 10:56:57;;;;;;;24.85;21.38;;;19.40;58.40;;;;;;5084700;28;20044;-66
2022/03/22 10:59:25;;;;;;;26.23;19.83;;;19.20;60.30;;;;;;5086461;28;20035;-67
2022/03/22 11:01:52;;;;;;;26.25;20.83;;;19.40;60.20;;;;;;5084278;27;20430;-67
2022/03/22 11:04:19;;;;;;;25.90;19.73;;;19.10;58.40;;;;;;5090115;27;20039;-67
2022/03/22 11:06:49;;;;;;;24.83;19.65;;;19.00;59.40;;;;;;5087273;28;20043;-67
2022/03/22 11:09:24;;;;;;;28.90;18.92;;;19.00;59.70;;;;;;5084780;27;21995;-67
2022/03/22 11:11:50;;;;;;;26.87;19.40;;;19.00;60.80;;;;;;5092343;28;20566;-67
2022/03/22 11:14:17;;;;;;;29.23;20.70;;;19.20;60.70;;;;;;5088130;28;20035;-67
2022/03/22 11:16:47;;;;;;;30.60;20.55;;;19.30;59.50;;;;;;5124368;27;20046;-66
2022/03/22 11:19:14;;;;;;;24.27;19.42;;;19.30;60.10;;;;;;5086566;28;20692;-66
2022/03/22 11:21:41;;;;;;;27.17;20.05;;;19.30;60.10;;;;;;5114715;27;20101;-67
2022/03/22 11:24:11;;;;;;;31.08;20.98;;;19.40;61.10;;;;;;5090314;27;20058;-66
2022/03/22 11:26:44;;;;;;;27.48;19.70;;;19.40;61.00;;;;;;5087013;27;20126;-66
2022/03/22 11:29:17;;;;;;;27.45;19.02;;;19.60;60.60;;;;;;5091837;28;20039;-67
2022/03/22 11:34:09;;;;;;;26.88;20.50;;;19.70;59.50;;;;;;5098457;28;20071;-66
2022/03/22 11:34:33;;;;;;;25.63;21.30;;;19.70;59.80;;;;;;5100261;28;20058;-67
2022/03/22 11:37:00;;;;;;;23.63;19.70;;;19.80;59.40;;;;;;5096969;28;20035;-67
2022/03/22 11:42:18;;;;;;;30.27;21.33;;;19.90;58.80;;;;;;5100884;28;20051;-66
2022/03/22 11:44:56;;;;;;;29.38;21.70;;;19.90;60.00;;;;;;5100994;28;20058;-66
2022/03/22 11:47:22;;;;;;;23.85;21.08;;;19.80;59.40;;;;;;5128101;27;20063;-66
2022/03/22 11:49:49;;;;;;;33.35;20.75;;;19.70;60.00;;;;;;5084979;28;20427;-66
2022/03/22 11:52:15;;;;;;;25.30;20.98;;;19.70;60.80;;;;;;5087495;28;20093;-66
2022/03/22 11:54:52;;;;;;;28.42;21.92;;;19.80;61.70;;;;;;5086642;28;20401;-67
2022/03/22 11:57:17;;;;;;;25.98;21.20;;;20.00;60.60;;;;;;5113554;27;20039;-67
2022/03/22 11:59:47;;;;;;;26.40;20.25;;;20.10;59.90;;;;;;5082551;28;20040;-67
2022/03/22 12:02:17;;;;;;;24.50;20.33;;;20.20;59.90;;;;;;5113379;27;20606;-66
2022/03/22 12:04:50;;;;;;;27.58;20.20;;;20.40;59.00;;;;;;5086923;28;20417;-67
2022/03/22 12:07:23;;;;;;;33.20;21.55;;;20.30;57.50;;;;;;5083989;27;20043;-67
2022/03/22 12:09:49;;;;;;;28.13;20.58;;;20.30;57.90;;;;;;5113844;27;20047;-67
2022/03/22 12:12:16;;;;;;;31.20;19.95;;;20.20;57.90;;;;;;5085604;28;20036;-67
2022/03/22 12:14:45;;;;;;;28.35;21.08;;;20.20;59.10;;;;;;5085823;28;20035;-66
2022/03/22 12:17:11;;;;;;;27.92;21.88;;;20.30;57.40;;;;;;5083896;28;20047;-67
2022/03/22 12:19:37;;;;;;;25.05;21.08;;;20.40;57.30;;;;;;5083523;28;20053;-66
2022/03/22 12:22:06;;;;;;;26.90;21.40;;;20.20;56.60;;;;;;5086628;28;20032;-67
2022/03/22 12:24:35;;;;;;;32.58;21.25;;;20.10;56.90;;;;;;5087053;28;20039;-66
2022/03/22 12:27:09;;;;;;;28.02;19.92;;;19.90;56.70;;;;;;5085643;28;20035;-66
2022/03/22 12:29:43;;;;;;;26.00;20.65;;;20.00;57.70;;;;;;5082536;27;20059;-67
2022/03/22 12:32:27;;;;;;;28.35;20.80;;;20.10;55.90;;;;;;5084645;28;20047;-67
2022/03/22 12:34:54;;;;;;;26.20;20.42;;;20.20;56.40;;;;;;5083001;27;20047;-66
2022/03/22 12:37:20;;;;;;;28.50;21.02;;;20.00;56.00;;;;;;5085729;28;20070;-66
2022/03/22 12:39:47;;;;;;;25.83;19.65;;;19.90;56.90;;;;;;5084040;28;21105;-66
2022/03/22 12:42:14;;;;;;;26.40;20.58;;;19.90;54.70;;;;;;5084188;28;20520;-66
2022/03/22 12:44:41;;;;;;;27.38;20.67;;;19.90;55.40;;;;;;5083800;28;20040;-66
2022/03/22 12:47:08;;;;;;;27.73;20.92;;;19.90;56.00;;;;;;5096334;27;20539;-66
2022/03/22 12:49:39;;;;;;;25.75;19.40;;;20.10;56.30;;;;;;5087215;28;20198;-67
2022/03/22 12:52:07;;;;;;;28.20;20.08;;;20.20;55.80;;;;;;5087567;28;20047;-67
2022/03/22 12:54:36;;;;;;;27.40;19.63;;;20.30;55.50;;;;;;5112733;27;20134;-66
2022/03/22 12:57:06;;;;;;;30.02;20.38;;;20.40;54.70;;;;;;5083300;28;20043;-66
2022/03/22 12:59:34;;;;;;;28.23;19.58;;;20.40;55.40;;;;;;5081391;28;20047;-67
2022/03/22 13:02:00;;;;;;;27.25;20.67;;;20.50;53.60;;;;;;5083821;28;20039;-67
2022/03/22 13:04:29;;;;;;;24.77;19.40;;;20.70;55.10;;;;;;5082414;28;20046;-66